createdAt,value
2018-08-16T00:00:45.059Z,5.40
2018-08-16T00:03:12.701Z,6.03
2018-08-16T00:05:40.286Z,6.03
2018-08-16T00:08:07.944Z,5.03
2018-08-16T00:10:35.578Z,4.60
2018-08-16T00:13:03.323Z,4.80
2018-08-16T00:15:30.896Z,5.33
2018-08-16T00:17:58.532Z,5.30
2018-08-16T00:20:26.165Z,5.30
2018-08-16T00:22:53.788Z,5.27
2018-08-16T00:25:21.492Z,5.70
2018-08-16T00:27:49.202Z,6.67
2018-08-16T00:30:18.382Z,6.67
2018-08-16T00:32:46.316Z,6.03
2018-08-16T00:35:13.947Z,5.87
2018-08-16T00:37:41.574Z,6.23
2018-08-16T00:40:12.522Z,5.80
2018-08-16T00:42:40.227Z,6.80
2018-08-16T00:45:08.715Z,6.10
2018-08-16T00:47:36.336Z,5.80
2018-08-16T00:50:06.040Z,6.70
2018-08-16T00:52:34.544Z,5.03
2018-08-16T00:55:02.163Z,5.93
2018-08-16T00:57:29.734Z,5.53
2018-08-16T00:59:57.300Z,5.57
2018-08-16T01:02:24.940Z,5.53
2018-08-16T01:04:52.557Z,6.00
2018-08-16T01:07:20.279Z,5.47
2018-08-16T01:09:47.937Z,5.40
2018-08-16T01:12:15.685Z,5.90
2018-08-16T01:14:43.336Z,5.60
2018-08-16T01:17:10.975Z,5.50
2018-08-16T01:19:38.609Z,5.83
2018-08-16T01:22:07.120Z,5.73
2018-08-16T01:24:34.705Z,5.43
2018-08-16T01:27:02.324Z,6.00
2018-08-16T01:29:29.930Z,4.87
2018-08-16T01:31:57.522Z,5.80
2018-08-16T01:34:25.136Z,5.10
2018-08-16T01:36:52.804Z,5.80
2018-08-16T01:39:20.384Z,5.20
2018-08-16T01:41:47.985Z,5.27
2018-08-16T01:44:15.549Z,6.23
2018-08-16T01:46:43.201Z,5.33
2018-08-16T01:49:32.961Z,5.90
2018-08-16T01:52:00.895Z,6.00
2018-08-16T01:54:28.944Z,6.63
2018-08-16T01:56:57.122Z,5.90
2018-08-16T01:59:24.733Z,6.60
2018-08-16T02:01:52.457Z,6.33
2018-08-16T02:04:20.028Z,6.93
2018-08-16T02:06:48.904Z,6.00
2018-08-16T02:09:16.629Z,7.10
2018-08-16T02:11:44.240Z,5.87
2018-08-16T02:14:11.813Z,6.33
2018-08-16T02:16:39.506Z,6.50
2018-08-16T02:19:07.124Z,5.40
2018-08-16T02:21:35.392Z,6.13
2018-08-16T02:24:03.270Z,5.13
2018-08-16T02:26:31.149Z,5.50
2018-08-16T02:28:58.746Z,5.90
2018-08-16T02:31:26.322Z,5.83
2018-08-16T02:33:54.459Z,5.40
2018-08-16T02:36:22.065Z,5.70
2018-08-16T02:38:49.859Z,6.27
2018-08-16T02:41:17.469Z,6.77
2018-08-16T02:43:45.324Z,6.23
2018-08-16T02:46:12.933Z,6.57
2018-08-16T02:48:40.533Z,6.00
2018-08-16T02:51:08.126Z,6.33
2018-08-16T02:53:35.679Z,8.00
2018-08-16T02:56:03.359Z,6.83
2018-08-16T02:58:31.093Z,8.03
2018-08-16T03:00:58.666Z,6.70
2018-08-16T03:03:26.264Z,6.57
2018-08-16T03:05:53.905Z,7.40
2018-08-16T03:08:21.596Z,7.30
2018-08-16T03:10:49.260Z,8.37
2018-08-16T03:13:16.916Z,7.33
2018-08-16T03:15:44.573Z,6.83
2018-08-16T03:18:12.148Z,7.40
2018-08-16T03:20:39.692Z,6.70
2018-08-16T03:23:07.592Z,6.83
2018-08-16T03:25:35.199Z,6.43
2018-08-16T03:28:02.953Z,6.73
2018-08-16T03:30:30.541Z,6.90
2018-08-16T03:32:58.103Z,6.27
2018-08-16T03:35:25.749Z,7.00
2018-08-16T03:37:53.337Z,5.93
2018-08-16T03:40:20.984Z,6.57
2018-08-16T03:42:48.809Z,7.30
2018-08-16T03:45:16.405Z,6.40
2018-08-16T03:47:44.220Z,6.10
2018-08-16T03:50:11.830Z,6.93
2018-08-16T03:52:39.392Z,7.57
2018-08-16T03:55:07.047Z,6.63
2018-08-16T03:57:34.638Z,6.73
2018-08-16T04:00:02.346Z,8.07
2018-08-16T04:02:29.962Z,7.73
2018-08-16T04:04:57.508Z,6.80
2018-08-16T04:07:25.166Z,7.50
2018-08-16T04:09:52.707Z,7.57
2018-08-16T04:12:20.280Z,7.60
2018-08-16T04:14:47.864Z,6.73
2018-08-16T04:17:15.477Z,7.00
2018-08-16T04:19:43.109Z,7.17
2018-08-16T04:22:10.693Z,7.13
2018-08-16T04:24:38.268Z,6.60
2018-08-16T04:27:05.880Z,6.23
2018-08-16T04:29:33.404Z,7.20
2018-08-16T04:32:01.066Z,6.10
2018-08-16T04:34:28.665Z,6.60
2018-08-16T04:36:56.276Z,6.70
2018-08-16T04:39:23.864Z,6.00
2018-08-16T04:41:51.460Z,6.40
2018-08-16T04:44:19.016Z,6.87
2018-08-16T04:46:46.558Z,6.17
2018-08-16T04:49:14.150Z,6.33
2018-08-16T04:51:41.720Z,5.93
2018-08-16T04:54:09.267Z,5.73
2018-08-16T04:56:36.797Z,5.50
2018-08-16T04:59:04.412Z,7.40
2018-08-16T05:01:31.986Z,7.60
2018-08-16T05:04:05.091Z,6.80
2018-08-16T05:06:32.650Z,7.90
2018-08-16T05:09:00.227Z,6.93
2018-08-16T05:11:27.801Z,7.73
2018-08-16T05:13:55.394Z,6.73
2018-08-16T05:16:23.010Z,6.50
2018-08-16T05:18:50.585Z,6.20
2018-08-16T05:21:18.165Z,6.13
2018-08-16T05:23:45.724Z,6.23
2018-08-16T05:26:13.312Z,6.80
2018-08-16T05:28:40.869Z,7.57
2018-08-16T05:31:08.504Z,7.57
2018-08-16T05:33:36.049Z,7.10
2018-08-16T05:36:03.727Z,7.10
2018-08-16T05:38:31.353Z,6.77
2018-08-16T05:40:58.924Z,6.53
2018-08-16T05:43:26.565Z,6.37
2018-08-16T05:45:54.080Z,6.90
2018-08-16T05:48:21.697Z,7.10
2018-08-16T05:50:49.300Z,6.60
2018-08-16T05:53:16.879Z,6.47
2018-08-16T05:55:44.444Z,6.53
2018-08-16T05:58:12.001Z,6.50
2018-08-16T06:00:39.599Z,6.77
2018-08-16T06:03:07.273Z,6.00
2018-08-16T06:05:34.874Z,6.13
2018-08-16T06:08:02.485Z,6.50
2018-08-16T06:10:30.161Z,6.87
2018-08-16T06:12:57.721Z,7.23
2018-08-16T06:15:25.398Z,6.47
2018-08-16T06:17:53.045Z,5.53
2018-08-16T06:20:20.684Z,7.13
2018-08-16T06:22:48.259Z,6.20
2018-08-16T06:25:15.868Z,6.13
2018-08-16T06:27:43.937Z,6.60
2018-08-16T06:30:13.665Z,6.80
2018-08-16T06:32:41.361Z,7.07
2018-08-16T06:35:09.262Z,6.53
2018-08-16T06:37:36.885Z,7.37
2018-08-16T06:40:06.325Z,6.27
2018-08-16T06:42:33.954Z,6.07
2018-08-16T06:45:01.557Z,6.93
2018-08-16T06:47:29.178Z,7.00
2018-08-16T06:49:56.812Z,7.20
2018-08-16T06:52:24.450Z,6.20
2018-08-16T06:54:52.025Z,6.47
2018-08-16T06:57:19.594Z,6.30
2018-08-16T06:59:47.441Z,6.10
2018-08-16T07:02:14.996Z,6.00
2018-08-16T07:04:42.530Z,6.27
2018-08-16T07:07:10.236Z,5.47
2018-08-16T07:09:37.807Z,6.20
2018-08-16T07:12:05.523Z,5.70
2018-08-16T07:14:33.174Z,5.10
2018-08-16T07:17:00.776Z,5.27
2018-08-16T07:19:28.344Z,5.50
2018-08-16T07:21:55.930Z,5.10
2018-08-16T07:24:23.551Z,5.30
2018-08-16T07:26:51.102Z,4.80
2018-08-16T07:29:18.650Z,4.80
2018-08-16T07:31:46.213Z,4.50
2018-08-16T07:34:13.798Z,4.30
2018-08-16T07:36:41.438Z,3.60
2018-08-16T07:39:10.241Z,4.30
2018-08-16T07:41:38.183Z,3.97
2018-08-16T07:44:05.757Z,3.57
2018-08-16T07:46:33.612Z,3.47
2018-08-16T07:49:01.584Z,3.43
2018-08-16T07:51:29.410Z,3.20
2018-08-16T07:53:56.789Z,3.00
2018-08-16T07:56:24.468Z,3.70
2018-08-16T07:58:52.141Z,3.13
2018-08-16T08:01:19.734Z,3.83
2018-08-16T08:03:47.428Z,3.70
2018-08-16T08:06:15.057Z,2.57
2018-08-16T08:08:42.804Z,2.60
2018-08-16T08:11:10.472Z,3.27
2018-08-16T08:13:38.159Z,3.40
2018-08-16T08:16:05.820Z,3.07
2018-08-16T08:18:33.447Z,3.00
2018-08-16T08:21:01.132Z,3.10
2018-08-16T08:23:28.769Z,3.03
2018-08-16T08:25:56.345Z,2.57
2018-08-16T08:28:24.033Z,2.83
2018-08-16T08:30:51.660Z,2.07
2018-08-16T08:33:19.531Z,2.37
2018-08-16T08:35:58.458Z,2.50
2018-08-16T08:38:26.057Z,2.20
2018-08-16T08:40:53.669Z,2.20
2018-08-16T08:43:32.601Z,2.70
2018-08-16T08:46:00.166Z,1.87
2018-08-16T08:48:27.818Z,2.33
2018-08-16T08:50:55.417Z,2.27
2018-08-16T08:54:34.525Z,1.70
2018-08-16T08:57:13.517Z,1.60
2018-08-16T08:59:41.232Z,1.67
2018-08-16T09:02:09.921Z,1.70
2018-08-16T09:04:37.567Z,1.47
2018-08-16T09:07:06.815Z,1.30
2018-08-16T09:09:34.739Z,1.60
2018-08-16T09:12:13.781Z,1.30
2018-08-16T09:14:52.836Z,1.40
2018-08-16T09:17:20.500Z,1.40
2018-08-16T09:19:48.053Z,1.30
2018-08-16T09:22:15.820Z,1.50
2018-08-16T09:24:43.439Z,0.90
2018-08-16T09:27:11.060Z,1.73
2018-08-16T09:30:20.820Z,1.57
2018-08-16T09:32:59.728Z,1.33
2018-08-16T09:35:27.929Z,1.37
2018-08-16T09:37:55.870Z,1.00
2018-08-16T09:40:23.788Z,1.20
2018-08-16T09:42:51.424Z,1.03
2018-08-16T09:45:30.458Z,1.03
2018-08-16T09:48:09.533Z,1.10
2018-08-16T09:50:37.259Z,1.07
2018-08-16T09:53:05.059Z,1.53
2018-08-16T09:55:32.670Z,1.30
2018-08-16T09:58:00.304Z,0.93
2018-08-16T10:00:33.681Z,1.10
2018-08-16T10:03:01.371Z,0.90
2018-08-16T10:05:28.969Z,1.03
2018-08-16T10:07:56.537Z,1.30
2018-08-16T10:10:24.138Z,1.13
2018-08-16T10:12:51.736Z,1.10
2018-08-16T10:15:19.385Z,1.23
2018-08-16T10:17:47.067Z,1.00
2018-08-16T10:20:14.638Z,0.93
2018-08-16T10:22:42.274Z,0.80
2018-08-16T10:25:09.888Z,1.07
2018-08-16T10:27:37.597Z,0.73
2018-08-16T10:30:06.829Z,0.90
2018-08-16T10:32:34.419Z,1.10
2018-08-16T10:35:02.031Z,0.93
2018-08-16T10:37:29.616Z,1.47
2018-08-16T10:39:57.173Z,0.90
2018-08-16T10:42:24.777Z,1.07
2018-08-16T10:44:52.348Z,0.97
2018-08-16T10:47:20.013Z,0.90
2018-08-16T10:49:47.748Z,0.90
2018-08-16T10:52:15.381Z,1.00
2018-08-16T10:54:43.032Z,1.00
2018-08-16T10:57:11.663Z,0.88
2018-08-16T10:59:39.324Z,0.75
2018-08-16T11:02:06.979Z,0.90
2018-08-16T11:04:34.642Z,0.90
2018-08-16T11:07:02.238Z,0.90
2018-08-16T11:09:29.964Z,1.00
2018-08-16T11:11:57.606Z,0.90
2018-08-16T11:14:25.208Z,0.87
2018-08-16T11:16:52.896Z,0.93
2018-08-16T11:19:21.441Z,1.13
2018-08-16T11:21:49.057Z,1.03
2018-08-16T11:26:51.917Z,1.00
2018-08-16T11:29:19.532Z,1.60
2018-08-16T11:31:47.101Z,1.20
2018-08-16T11:34:14.731Z,1.20
2018-08-16T11:36:42.341Z,1.30
2018-08-16T11:39:09.992Z,0.93
2018-08-16T11:41:37.665Z,0.70
2018-08-16T11:44:05.305Z,0.90
2018-08-16T11:46:32.945Z,0.87
2018-08-16T11:49:00.526Z,0.87
2018-08-16T11:51:28.189Z,1.10
2018-08-16T11:53:55.757Z,1.30
2018-08-16T11:56:23.364Z,1.20
2018-08-16T11:58:50.996Z,1.40
2018-08-16T12:01:18.704Z,0.90
2018-08-16T12:03:46.388Z,0.97
2018-08-16T12:06:14.049Z,0.83
2018-08-16T12:08:41.553Z,0.90
2018-08-16T12:11:09.180Z,0.90
2018-08-16T12:13:36.776Z,0.83
2018-08-16T12:16:04.396Z,0.70
2018-08-16T12:18:31.976Z,0.90
2018-08-16T12:20:59.574Z,0.90
2018-08-16T12:23:27.116Z,1.00
2018-08-16T12:25:54.710Z,0.90
2018-08-16T12:28:22.311Z,1.33
2018-08-16T12:30:50.053Z,1.20
2018-08-16T12:33:17.678Z,1.10
2018-08-16T12:35:45.356Z,0.77
2018-08-16T12:38:12.920Z,0.90
2018-08-16T12:40:40.555Z,0.80
2018-08-16T12:43:08.105Z,0.93
2018-08-16T12:45:35.729Z,1.00
2018-08-16T12:48:03.354Z,1.00
2018-08-16T12:50:31.081Z,0.80
2018-08-16T12:52:58.661Z,0.90
2018-08-16T12:55:26.318Z,1.00
2018-08-16T12:57:53.968Z,0.93
2018-08-16T13:00:21.661Z,0.93
2018-08-16T13:02:49.297Z,0.80
2018-08-16T13:05:16.931Z,3.97
2018-08-16T13:07:44.581Z,0.97
2018-08-16T13:10:13.000Z,1.10
2018-08-16T13:12:40.628Z,1.20
2018-08-16T13:15:12.941Z,1.07
2018-08-16T13:17:40.716Z,1.30
2018-08-16T13:20:09.509Z,0.70
2018-08-16T13:22:37.218Z,0.97
2018-08-16T13:25:05.361Z,1.20
2018-08-16T13:27:33.066Z,0.93
2018-08-16T13:30:00.661Z,1.30
2018-08-16T13:32:28.325Z,1.13
2018-08-16T13:34:55.962Z,1.30
2018-08-16T13:37:23.573Z,1.30
2018-08-16T13:39:51.179Z,1.03
2018-08-16T13:42:18.936Z,1.40
2018-08-16T13:44:46.478Z,1.40
2018-08-16T13:47:14.086Z,1.13
2018-08-16T13:49:41.727Z,1.33
2018-08-16T13:52:09.427Z,1.10
2018-08-16T13:54:37.119Z,1.73
2018-08-16T13:57:06.080Z,9.57
2018-08-16T13:59:33.813Z,1.27
2018-08-16T14:02:01.424Z,1.50
2018-08-16T14:04:29.099Z,1.00
2018-08-16T14:06:56.741Z,1.37
2018-08-16T14:09:24.342Z,0.87
2018-08-16T14:11:51.933Z,1.27
2018-08-16T14:14:19.546Z,1.30
2018-08-16T14:16:47.241Z,1.10
2018-08-16T14:19:14.801Z,1.30
2018-08-16T14:21:42.726Z,1.40
2018-08-16T14:24:10.521Z,1.70
2018-08-16T14:26:38.108Z,1.27
2018-08-16T14:29:05.750Z,1.03
2018-08-16T14:31:33.381Z,1.30
2018-08-16T14:34:00.988Z,1.20
2018-08-16T14:36:28.645Z,1.30
2018-08-16T14:38:56.279Z,1.37
2018-08-16T14:41:23.956Z,1.37
2018-08-16T14:43:51.595Z,1.23
2018-08-16T14:46:19.260Z,1.10
2018-08-16T14:48:46.898Z,1.20
2018-08-16T14:51:14.641Z,1.50
2018-08-16T14:53:42.285Z,1.47
2018-08-16T14:56:09.926Z,1.67
2018-08-16T14:58:37.531Z,1.70
2018-08-16T15:01:05.308Z,1.40
2018-08-16T15:03:32.945Z,1.63
2018-08-16T15:06:00.545Z,1.47
2018-08-16T15:08:28.161Z,2.10
2018-08-16T15:10:55.817Z,1.50
2018-08-16T15:13:23.662Z,1.57
2018-08-16T15:15:51.660Z,1.80
2018-08-16T15:18:19.660Z,1.63
2018-08-16T15:20:47.595Z,1.67
2018-08-16T15:23:15.241Z,2.17
2018-08-16T15:25:42.954Z,2.70
2018-08-16T15:28:10.590Z,1.83
2018-08-16T15:30:38.322Z,1.87
2018-08-16T15:33:06.036Z,1.67
2018-08-16T15:35:33.635Z,1.60
2018-08-16T15:38:01.327Z,2.30
2018-08-16T15:40:29.012Z,1.77
2018-08-16T15:42:56.746Z,1.47
2018-08-16T15:45:34.203Z,1.50
2018-08-16T15:48:02.215Z,1.50
2018-08-16T15:50:29.823Z,2.07
2018-08-16T15:52:57.576Z,2.17
2018-08-16T15:55:25.227Z,1.60
2018-08-16T15:57:52.909Z,2.90
2018-08-16T16:00:22.051Z,1.70
2018-08-16T16:02:49.728Z,1.20
2018-08-16T16:05:17.377Z,2.10
2018-08-16T16:07:44.971Z,2.07
2018-08-16T16:10:12.692Z,2.50
2018-08-16T16:12:40.358Z,2.10
2018-08-16T16:15:09.221Z,1.73
2018-08-16T16:17:36.847Z,1.60
2018-08-16T16:20:04.840Z,1.70
2018-08-16T16:22:32.456Z,1.73
2018-08-16T16:25:00.063Z,1.97
2018-08-16T16:27:27.701Z,2.10
2018-08-16T16:29:55.355Z,1.87
2018-08-16T16:32:22.958Z,2.47
2018-08-16T16:34:50.573Z,1.80
2018-08-16T16:37:18.204Z,1.60
2018-08-16T16:39:45.792Z,1.50
2018-08-16T16:42:13.445Z,1.70
2018-08-16T16:44:41.041Z,1.50
2018-08-16T16:47:08.998Z,1.63
2018-08-16T16:49:36.686Z,2.00
2018-08-16T16:52:04.476Z,1.70
2018-08-16T16:54:32.330Z,1.90
2018-08-16T16:57:00.001Z,1.57
2018-08-16T16:59:27.658Z,1.43
2018-08-16T17:01:55.292Z,2.00
2018-08-16T17:04:25.816Z,5.60
2018-08-16T17:06:55.424Z,2.00
2018-08-16T17:09:23.027Z,1.60
2018-08-16T17:11:50.685Z,1.60
2018-08-16T17:14:18.393Z,2.03
2018-08-16T17:16:46.023Z,1.67
2018-08-16T17:19:13.693Z,1.70
2018-08-16T17:21:41.433Z,1.90
2018-08-16T17:24:09.125Z,1.47
2018-08-16T17:26:36.773Z,1.47
2018-08-16T17:29:04.524Z,1.60
2018-08-16T17:31:32.178Z,2.90
2018-08-16T17:33:59.860Z,1.53
2018-08-16T17:36:27.492Z,2.70
2018-08-16T17:38:55.158Z,2.30
2018-08-16T17:41:22.789Z,1.50
2018-08-16T17:43:50.373Z,1.50
2018-08-16T17:46:18.058Z,1.90
2018-08-16T17:48:45.801Z,1.90
2018-08-16T17:51:13.729Z,2.50
2018-08-16T17:53:41.710Z,1.80
2018-08-16T17:56:09.391Z,2.90
2018-08-16T17:58:37.044Z,2.00
2018-08-16T18:01:04.764Z,2.03
2018-08-16T18:03:32.358Z,1.90
2018-08-16T18:06:00.223Z,1.60
2018-08-16T18:08:27.889Z,1.93
2018-08-16T18:10:55.535Z,3.17
2018-08-16T18:13:23.130Z,21.97
2018-08-16T18:15:50.743Z,12.33
2018-08-16T18:18:18.376Z,11.17
2018-08-16T18:20:45.980Z,8.27
2018-08-16T18:23:13.592Z,5.27
2018-08-16T18:25:41.188Z,6.10
2018-08-16T18:28:14.722Z,5.23
2018-08-16T18:30:42.345Z,4.80
2018-08-16T18:33:10.108Z,3.73
2018-08-16T18:35:37.753Z,3.07
2018-08-16T18:38:05.782Z,3.77
2018-08-16T18:40:33.362Z,3.13
2018-08-16T18:43:00.980Z,3.93
2018-08-16T18:45:28.557Z,3.90
2018-08-16T18:47:56.124Z,3.53
2018-08-16T18:50:23.727Z,4.47
2018-08-16T18:52:51.373Z,2.87
2018-08-16T18:55:19.021Z,3.17
2018-08-16T18:57:46.743Z,3.03
2018-08-16T19:00:14.435Z,3.00
2018-08-16T19:02:42.060Z,3.30
2018-08-16T19:05:09.820Z,2.50
2018-08-16T19:07:37.491Z,2.70
2018-08-16T19:10:06.185Z,2.60
2018-08-16T19:12:33.819Z,2.00
2018-08-16T19:15:01.443Z,2.57
2018-08-16T19:17:29.083Z,1.70
2018-08-16T19:19:56.668Z,2.30
2018-08-16T19:22:24.325Z,2.37
2018-08-16T19:24:51.964Z,2.23
2018-08-16T19:27:19.598Z,2.50
2018-08-16T19:29:47.233Z,2.00
2018-08-16T19:32:14.813Z,2.03
2018-08-16T19:34:42.417Z,1.90
2018-08-16T19:37:09.994Z,2.10
2018-08-16T19:39:37.733Z,2.23
2018-08-16T19:42:05.440Z,2.50
2018-08-16T19:44:33.062Z,2.43
2018-08-16T19:47:00.684Z,2.40
2018-08-16T19:49:28.338Z,2.20
2018-08-16T19:51:56.011Z,1.93
2018-08-16T19:54:23.660Z,2.27
2018-08-16T19:56:51.309Z,3.20
2018-08-16T19:59:18.850Z,2.83
2018-08-16T20:01:46.468Z,2.93
2018-08-16T20:04:14.073Z,2.33
2018-08-16T20:06:41.690Z,2.40
2018-08-16T20:09:10.103Z,2.50
2018-08-16T20:11:37.801Z,2.67
2018-08-16T20:14:05.440Z,3.00
2018-08-16T20:16:33.373Z,2.20
2018-08-16T20:19:01.106Z,2.70
2018-08-16T20:21:29.162Z,2.70
2018-08-16T20:24:02.900Z,6.47
2018-08-16T20:26:30.650Z,12.60
2018-08-16T20:28:58.356Z,3.30
2018-08-16T20:31:26.017Z,3.40
2018-08-16T20:34:11.396Z,4.30
2018-08-16T20:36:40.365Z,3.47
2018-08-16T20:39:08.852Z,2.90
2018-08-16T20:41:36.528Z,2.77
2018-08-16T20:44:04.214Z,3.83
2018-08-16T20:46:31.986Z,3.43
2018-08-16T20:48:59.620Z,2.60
2018-08-16T20:51:27.359Z,2.60
2018-08-16T20:53:54.948Z,5.73
2018-08-16T20:56:22.634Z,4.23
2018-08-16T20:58:50.264Z,3.60
2018-08-16T21:01:17.968Z,3.20
2018-08-16T21:03:45.669Z,2.70
2018-08-16T21:06:13.327Z,3.10
2018-08-16T21:08:40.926Z,3.23
2018-08-16T21:11:08.519Z,3.30
2018-08-16T21:13:36.252Z,3.63
2018-08-16T21:16:04.202Z,3.63
2018-08-16T21:18:31.810Z,3.03
2018-08-16T21:20:59.404Z,3.30
2018-08-16T21:23:27.059Z,2.87
2018-08-16T21:25:54.880Z,3.40
2018-08-16T21:28:22.460Z,3.50
2018-08-16T21:30:50.098Z,3.63
2018-08-16T21:33:17.739Z,3.03
2018-08-16T21:35:45.328Z,3.67
2018-08-16T21:38:12.999Z,3.30
2018-08-16T21:40:40.606Z,3.53
2018-08-16T21:43:08.250Z,3.27
2018-08-16T21:45:35.858Z,3.60
2018-08-16T21:48:03.550Z,3.80
2018-08-16T21:50:31.173Z,3.57
2018-08-16T21:52:58.831Z,3.80
2018-08-16T21:55:26.509Z,3.30
2018-08-16T21:57:54.173Z,4.00
2018-08-16T22:00:55.788Z,2.20
2018-08-16T22:03:27.748Z,3.30
2018-08-16T22:05:58.666Z,3.20
2018-08-16T22:08:46.497Z,2.83
2018-08-16T22:11:14.196Z,3.57
2018-08-16T22:13:41.882Z,3.70
2018-08-16T22:16:09.673Z,2.87
2018-08-16T22:18:37.792Z,3.43
2018-08-16T22:21:05.449Z,3.43
2018-08-16T22:23:33.078Z,3.63
2018-08-16T22:26:00.778Z,3.60
2018-08-16T22:28:28.411Z,3.20
2018-08-16T22:30:56.293Z,3.53
2018-08-16T22:33:23.957Z,3.10
2018-08-16T22:35:51.582Z,3.00
2018-08-16T22:38:19.183Z,3.27
2018-08-16T22:40:46.851Z,2.90
2018-08-16T22:43:14.498Z,4.07
2018-08-16T22:45:42.124Z,2.83
2018-08-16T22:48:09.761Z,3.80
2018-08-16T22:50:37.405Z,3.70
2018-08-16T22:53:05.228Z,3.37
2018-08-16T22:55:33.213Z,4.10
2018-08-16T22:58:00.888Z,3.33
2018-08-16T23:00:28.543Z,3.87
2018-08-16T23:02:56.318Z,3.40
2018-08-16T23:05:23.982Z,2.90
2018-08-16T23:07:51.647Z,2.80
2018-08-16T23:10:19.801Z,4.00
2018-08-16T23:12:47.440Z,3.63
2018-08-16T23:15:15.041Z,3.53
2018-08-16T23:17:42.675Z,3.03
2018-08-16T23:20:10.402Z,3.20
2018-08-16T23:22:38.392Z,3.43
2018-08-16T23:25:06.487Z,2.90
2018-08-16T23:27:34.140Z,3.17
2018-08-16T23:30:01.845Z,3.03
2018-08-16T23:32:29.461Z,2.90
2018-08-16T23:34:57.064Z,3.70
2018-08-16T23:37:24.662Z,4.60
2018-08-16T23:39:52.314Z,2.90
2018-08-16T23:42:19.935Z,4.43
2018-08-16T23:44:47.598Z,3.53
2018-08-16T23:47:19.860Z,3.47
2018-08-16T23:49:47.525Z,3.20
2018-08-16T23:52:15.144Z,3.90
2018-08-16T23:54:42.770Z,4.00
2018-08-16T23:57:10.456Z,4.10
2018-08-16T23:59:38.127Z,4.20
